Hewlett, NY

8:38 PM EDT on June 25, 2017 (GMT -0400)
Valley Stream | | Change Station
Active Advisory: Coastal Flood Statement Active Notice: Coastal Flood Statement

Elev 12 ft 40.65 °N, 73.69 °W | Updated 8 minutes ago

Partly Cloudy
Partly Cloudy
72.8 °F
Feels Like 74 °F
N
2.0
Wind Variable Wind from SSW
Gusts 7.0 mph

Today
High -- | Low -- °F
--% Chance of Precip.
Yesterday
High -- | Low -- °F
Precip. -- in
Pressure 29.94 in
Visibility 10.0 miles
Clouds Scattered Clouds 7000 ft
Scattered Clouds 13000 ft
Mostly Cloudy 25000 ft
Heat Index 74 °F
Dew Point 65 °F
Humidity 77%
Rainfall 0.00 in
Snow Depth Not available.
5:25 AM 8:29 PM
Waxing Crescent, 5% visible
METAR KJFK 252351Z 19014KT 10SM SCT070 SCT130 BKN250 22/19 A2994 RMK AO2 SLP138 T02220194 10278 20222 53004 $
Pressure 29.94 in
Visibility 10.0 miles
Clouds Scattered Clouds 7000 ft
Scattered Clouds 13000 ft
Mostly Cloudy 25000 ft
Heat Index 74 °F
Dew Point 65 °F
Humidity 77%
Rainfall 0.00 in
Snow Depth Not available.
5:25 AM 8:29 PM
Waxing Crescent, 5% visible
METAR KJFK 252351Z 19014KT 10SM SCT070 SCT130 BKN250 22/19 A2994 RMK AO2 SLP138 T02220194 10278 20222 53004 $

Get Your Daily Forecast Email!

Thanks for signing up!

Be on the lookout for a verification email in your inbox.

You'll start receiving severe weather alerts in your inbox..

×

10-Day Weather Forecast

Almanac

Astronomy

Jun. 25, 2017 Rise Set
Actual Time
Civil Twilight
Nautical Twilight
Astronomical Twilight
Moon
Length of Visible Light
Length of Day
Tomorrow will be .
, % of the Moon is Illuminated

Today's Extremes

State Highs State Lows

Community

WunderPhotos

Category 6

Welcome to Category 6. This is the collective home for Weather Underground's featured writeups by Dr. Jeff Masters (right), Bob Henson (left), Chris Burt, and other regular contributors.

Nearby

Air Quality

  Air Quality AQ Index Pollutant
Not available.

Snow Depth

Station Depth Elevation

Earthquake Activity

City Distance Mag. Time & Date
Minimum magnitude displayed is 2.5.

Coastal Water Temperatures

Place Temperature

Stations

Nearby Weather Stations

Station Location Temp. Windchill Dew Point Humidity Wind Precip. Elev Updated Type
                   

Watches & Warnings

Coastal Flood Statement
Issued: 3:09 PM EDT Jun. 25, 2017 – National Weather Service

* locations... along the South Shore back bays of Nassau County.

* Tidal departures... 1 to 1 1/2 ft above astronomical high tide.

* Timing... around the times of high tide this evening... which are
generally between 9 PM and 11 PM.

* Impacts... localized minor flooding of some shoreline and
Waterfront properties around the time of high tide.